createdAt,value
2022-07-29T00:04:18.259Z,101117.38
2022-07-29T00:09:19.924Z,101113.94
2022-07-29T00:14:21.368Z,101109.69
2022-07-29T00:19:22.779Z,101098.41
2022-07-29T00:24:24.712Z,101083.13
2022-07-29T00:29:34.695Z,101062.94
2022-07-29T00:34:54.775Z,101065.38
2022-07-29T00:39:56.398Z,101051.75
2022-07-29T00:44:57.784Z,101047.09
2022-07-29T00:49:59.234Z,101035.09
2022-07-29T00:55:04.943Z,101038.53
2022-07-29T01:00:15.708Z,101032.59
2022-07-29T01:05:22.463Z,101036.75
2022-07-29T01:10:25.959Z,101032.63
2022-07-29T01:15:27.717Z,101027.69
2022-07-29T01:20:51.111Z,101021.38
2022-07-29T01:25:58.119Z,101025.19
2022-07-29T01:31:03.477Z,101004.47
2022-07-29T01:36:14.078Z,101015.03
2022-07-29T01:41:18.625Z,100987.44
2022-07-29T01:46:32.829Z,101018.09
2022-07-29T01:51:41.248Z,101013.31
2022-07-29T01:56:45.996Z,100998.78
2022-07-29T02:01:49.363Z,100997.72
2022-07-29T02:06:53.824Z,101001.34
2022-07-29T02:12:00.285Z,101006.81
2022-07-29T02:17:02.985Z,100986.94
2022-07-29T02:22:06.833Z,100942.28
2022-07-29T02:27:10.400Z,101003.66
2022-07-29T02:32:14.083Z,101005.41
2022-07-29T02:37:17.676Z,100998.69
2022-07-29T02:42:19.504Z,101015.31
2022-07-29T02:47:41.791Z,101060.81
2022-07-29T02:52:55.092Z,101048.66
2022-07-29T02:58:14.309Z,101057.44
2022-07-29T03:03:18.333Z,101054.38
2022-07-29T03:08:20.115Z,101066.38
2022-07-29T03:13:22.208Z,101060.59
2022-07-29T03:18:24.213Z,101052.06
2022-07-29T03:23:26.941Z,101045.16
2022-07-29T03:28:28.359Z,101062.63
2022-07-29T03:33:31.227Z,101063.69
2022-07-29T03:38:35.834Z,101048.56
2022-07-29T03:43:44.079Z,101056.00
2022-07-29T03:48:57.245Z,101071.47
2022-07-29T03:53:59.329Z,101064.91
2022-07-29T03:59:03.127Z,101086.69
2022-07-29T04:04:05.816Z,101112.94
2022-07-29T04:09:07.536Z,101136.66
2022-07-29T04:14:11.463Z,101123.47
2022-07-29T04:19:12.985Z,101118.59
2022-07-29T04:24:15.065Z,101091.13
2022-07-29T04:29:16.705Z,101089.94
2022-07-29T04:34:18.791Z,101086.56
2022-07-29T04:39:23.064Z,101080.13
2022-07-29T04:44:28.446Z,101075.75
2022-07-29T04:49:30.301Z,101052.44
2022-07-29T04:54:31.728Z,101067.09
2022-07-29T04:59:33.189Z,101055.53
2022-07-29T05:04:34.636Z,101060.44
2022-07-29T05:09:36.094Z,101050.91
2022-07-29T05:14:37.517Z,101034.31
2022-07-29T05:19:39.609Z,101054.81
2022-07-29T05:24:41.737Z,101074.06
2022-07-29T05:29:45.827Z,101075.59
2022-07-29T05:34:50.813Z,101089.13
2022-07-29T05:39:57.310Z,101081.47
2022-07-29T05:45:01.017Z,101077.75
2022-07-29T05:50:02.494Z,101097.69
2022-07-29T05:55:06.332Z,101071.06
2022-07-29T06:00:08.641Z,101063.91
2022-07-29T06:05:10.558Z,101050.28
2022-07-29T06:10:17.828Z,101054.72
2022-07-29T06:15:19.288Z,101078.81
2022-07-29T06:20:20.758Z,101070.78
2022-07-29T06:25:33.177Z,101041.06
2022-07-29T06:30:34.596Z,101043.22
2022-07-29T06:35:38.808Z,101031.50
2022-07-29T06:41:06.756Z,101049.53
2022-07-29T06:46:11.189Z,101059.25
2022-07-29T06:51:12.792Z,101058.97
2022-07-29T06:56:14.869Z,101066.56
2022-07-29T07:01:17.021Z,101084.63
2022-07-29T07:06:19.679Z,101104.56
2022-07-29T07:11:21.400Z,101102.03
2022-07-29T07:16:22.829Z,101131.41
2022-07-29T07:21:24.406Z,101147.81
2022-07-29T07:26:26.226Z,101154.63
2022-07-29T07:31:27.864Z,101144.22
2022-07-29T07:36:29.343Z,101148.69
2022-07-29T07:41:32.526Z,101153.78
2022-07-29T07:46:34.112Z,101158.75
2022-07-29T07:51:35.500Z,101150.81
2022-07-29T07:56:36.923Z,101149.09
2022-07-29T08:01:49.985Z,101161.19
2022-07-29T08:06:58.289Z,101151.16
2022-07-29T08:12:00.197Z,101164.44
2022-07-29T08:17:01.837Z,101163.31
2022-07-29T08:22:03.360Z,101148.69
2022-07-29T08:27:16.603Z,101165.09
2022-07-29T08:32:51.239Z,101147.78
2022-07-29T08:37:48.011Z,101151.59
2022-07-29T08:42:50.754Z,101143.09
2022-07-29T08:47:53.304Z,101131.84
2022-07-29T08:52:59.609Z,101149.28
2022-07-29T08:58:02.845Z,101143.38
2022-07-29T09:03:05.933Z,101146.03
2022-07-29T09:08:07.893Z,101146.72
2022-07-29T09:13:09.471Z,101138.19
2022-07-29T09:18:20.468Z,101145.78
2022-07-29T09:23:32.276Z,101147.28
2022-07-29T09:28:33.744Z,101149.38
2022-07-29T09:33:36.592Z,101145.63
2022-07-29T09:38:38.296Z,101146.16
2022-07-29T09:43:41.434Z,101144.06
2022-07-29T09:48:43.032Z,101127.94
2022-07-29T09:53:44.464Z,101120.72
2022-07-29T09:58:45.901Z,101105.94
2022-07-29T10:03:54.139Z,101091.47
2022-07-29T10:09:08.564Z,101134.09
2022-07-29T10:14:10.063Z,101123.28
2022-07-29T10:19:11.672Z,101110.88
2022-07-29T10:24:14.613Z,101115.59
2022-07-29T10:29:16.693Z,101106.56
2022-07-29T10:34:37.836Z,101103.06
2022-07-29T10:39:53.193Z,101119.94
2022-07-29T10:44:55.450Z,101111.47
2022-07-29T10:50:01.441Z,101112.91
2022-07-29T10:55:05.670Z,101111.75
2022-07-29T11:00:09.883Z,101133.25
2022-07-29T11:05:14.501Z,101132.16
2022-07-29T11:10:16.302Z,101135.97
2022-07-29T11:15:22.162Z,101131.00
2022-07-29T11:20:46.674Z,101140.66
2022-07-29T11:26:26.759Z,101136.47
2022-07-29T11:31:42.691Z,101147.66
2022-07-29T11:37:14.918Z,101149.13
2022-07-29T11:42:32.074Z,101153.34
2022-07-29T11:47:39.574Z,101144.00
2022-07-29T11:52:49.670Z,101153.84
2022-07-29T11:58:03.901Z,101147.50
2022-07-29T12:03:08.856Z,101154.69
2022-07-29T12:08:14.634Z,101158.47
2022-07-29T12:13:18.470Z,101142.84
2022-07-29T12:18:24.053Z,101139.84
2022-07-29T12:23:25.826Z,101136.06
2022-07-29T12:28:31.984Z,101152.44
2022-07-29T12:33:35.224Z,101156.84
2022-07-29T12:38:36.926Z,101152.63
2022-07-29T12:43:38.383Z,101164.63
2022-07-29T12:48:43.102Z,101126.03
2022-07-29T12:54:04.555Z,101141.16
2022-07-29T12:59:19.594Z,101138.03
2022-07-29T13:04:32.732Z,101155.97
2022-07-29T13:09:46.648Z,101160.09
2022-07-29T13:14:50.204Z,101161.13
2022-07-29T13:19:54.208Z,101155.63
2022-07-29T13:24:58.329Z,101161.66
2022-07-29T13:30:01.896Z,101155.25
2022-07-29T13:35:06.793Z,101150.94
2022-07-29T13:40:09.431Z,101151.47
2022-07-29T13:45:11.829Z,101139.94
2022-07-29T13:50:13.232Z,101140.53
2022-07-29T13:55:14.648Z,101134.78
2022-07-29T14:00:17.131Z,101140.75
2022-07-29T14:05:18.549Z,101138.88
2022-07-29T14:10:20.388Z,101143.81
2022-07-29T14:15:21.977Z,101133.03
2022-07-29T14:20:23.565Z,101144.97
2022-07-29T14:25:25.094Z,101141.81
2022-07-29T14:30:26.524Z,101131.94
2022-07-29T14:35:28.001Z,101133.38
2022-07-29T14:40:29.428Z,101133.59
2022-07-29T14:45:31.038Z,101136.78
2022-07-29T14:50:32.505Z,101107.84
2022-07-29T14:55:33.991Z,101125.53
2022-07-29T15:00:37.667Z,101110.38
2022-07-29T15:05:39.687Z,101140.56
2022-07-29T15:10:41.163Z,101129.09
2022-07-29T15:15:42.769Z,101135.25
2022-07-29T15:20:46.891Z,101105.84
2022-07-29T15:25:48.291Z,101122.97
2022-07-29T15:30:49.702Z,101118.34
2022-07-29T15:35:51.110Z,101133.06
2022-07-29T15:40:52.536Z,101125.81
2022-07-29T15:46:12.313Z,101127.53
2022-07-29T15:51:14.295Z,101123.75
2022-07-29T15:56:15.691Z,101110.13
2022-07-29T16:01:17.711Z,101121.91
2022-07-29T16:06:19.379Z,101113.94
2022-07-29T16:11:20.953Z,101121.44
2022-07-29T16:16:22.375Z,101116.09
2022-07-29T16:21:23.882Z,101109.91
2022-07-29T16:26:25.282Z,101113.53
2022-07-29T16:31:27.345Z,101116.97
2022-07-29T16:36:28.838Z,101121.69
2022-07-29T16:41:30.215Z,101123.94
2022-07-29T16:46:31.648Z,101109.84
2022-07-29T16:51:33.080Z,101099.28
2022-07-29T16:56:34.551Z,101111.53
2022-07-29T17:01:36.080Z,101113.91
2022-07-29T17:06:40.338Z,101116.19
2022-07-29T17:11:52.349Z,101099.28
2022-07-29T17:17:02.400Z,101107.34
2022-07-29T17:22:13.020Z,101115.41
2022-07-29T17:27:17.514Z,101105.06
2022-07-29T17:32:18.958Z,101121.19
2022-07-29T17:37:20.380Z,101132.97
2022-07-29T17:42:21.794Z,101132.31
2022-07-29T17:47:23.249Z,101145.28
2022-07-29T17:52:24.665Z,101141.50
2022-07-29T17:57:26.187Z,101138.22
2022-07-29T18:02:28.274Z,101142.84
2022-07-29T18:07:30.143Z,101142.94
2022-07-29T18:12:31.570Z,101137.09
2022-07-29T18:17:48.464Z,101147.84
2022-07-29T18:22:54.453Z,101153.91
2022-07-29T18:28:00.161Z,101155.81
2022-07-29T18:38:23.359Z,101154.47
2022-07-29T18:43:24.827Z,101117.25
2022-07-29T18:48:26.277Z,101155.56
2022-07-29T18:53:27.751Z,101145.84
2022-07-29T18:58:29.209Z,101160.28
2022-07-29T19:03:30.642Z,101160.22
2022-07-29T19:08:32.081Z,101157.91
2022-07-29T19:13:33.802Z,101155.88
2022-07-29T19:18:35.196Z,101138.91
2022-07-29T19:24:04.218Z,101090.63
2022-07-29T19:28:58.174Z,101155.47
2022-07-29T19:33:59.597Z,101163.56
2022-07-29T19:39:01.298Z,101173.94
2022-07-29T19:44:02.761Z,101180.53
2022-07-29T19:49:06.507Z,101183.88
2022-07-29T19:54:08.731Z,101187.66
2022-07-29T19:59:10.918Z,101186.00
2022-07-29T20:04:13.834Z,101207.66
2022-07-29T20:09:16.852Z,101196.31
2022-07-29T20:14:22.629Z,101205.47
2022-07-29T20:19:24.105Z,101197.66
2022-07-29T20:24:25.731Z,101213.94
2022-07-29T20:29:27.155Z,101216.94
2022-07-29T20:34:28.571Z,101217.69
2022-07-29T20:39:30.336Z,101228.59
2022-07-29T20:44:32.081Z,101217.63
2022-07-29T20:49:33.550Z,101228.72
2022-07-29T20:54:34.968Z,101229.91
2022-07-29T20:59:36.586Z,101226.81
2022-07-29T21:04:38.042Z,101218.19
2022-07-29T21:09:39.434Z,101227.34
2022-07-29T21:14:41.127Z,101219.22
2022-07-29T21:19:42.962Z,101218.97
2022-07-29T21:24:44.888Z,101240.00
2022-07-29T21:29:46.322Z,101236.09
2022-07-29T21:34:47.766Z,101252.38
2022-07-29T21:39:49.823Z,101256.28
2022-07-29T21:44:51.370Z,101256.47
2022-07-29T21:49:52.907Z,101258.84
2022-07-29T21:54:54.312Z,101256.31
2022-07-29T21:59:58.465Z,101261.53
2022-07-29T22:05:04.089Z,101266.94
2022-07-29T22:10:06.083Z,101261.75
2022-07-29T22:15:08.280Z,101257.69
2022-07-29T22:20:10.207Z,101260.69
2022-07-29T22:25:11.747Z,101253.56
2022-07-29T22:30:13.504Z,101245.75
2022-07-29T22:35:15.483Z,101232.03
2022-07-29T22:40:16.934Z,101251.56
2022-07-29T22:45:18.471Z,101252.38
2022-07-29T22:50:19.919Z,101250.16
2022-07-29T22:55:21.449Z,101251.28
2022-07-29T23:00:22.889Z,101249.94
2022-07-29T23:05:24.318Z,101238.63
2022-07-29T23:10:25.849Z,101237.13
2022-07-29T23:15:27.606Z,101230.25
2022-07-29T23:20:29.050Z,101225.38
2022-07-29T23:25:30.617Z,101215.44
2022-07-29T23:30:32.512Z,101221.03
2022-07-29T23:35:34.212Z,101196.28
2022-07-29T23:40:35.768Z,101206.59
2022-07-29T23:45:42.478Z,101214.72
2022-07-29T23:50:45.874Z,101194.22
2022-07-29T23:55:47.300Z,101198.34
